Time;durP1;ratioP1;P1;durP2;ratioP2;P2;SDS_P1;SDS_P2;PMS_P1;PMS_P2;Temp;Humidity;BMP_temperature;BMP_pressure;BME280_temperature;BME280_humidity;BME280_pressure;Samples;Min_cycle;Max_cycle;Signal;HPM_P1;HPM_P2
2023/10/14 00:02:15;;;;;;;6.05;1.30;;;14.30;99.90;;;;;;20260397;29;20182;-82
2023/10/14 00:12:16;;;;;;;11.90;1.92;;;14.00;99.90;;;;;;20250975;29;20044;-85
2023/10/14 00:22:18;;;;;;;5.00;0.98;;;13.90;99.90;;;;;;20260735;29;20580;-85
2023/10/14 00:32:20;;;;;;;5.75;1.30;;;13.70;99.90;;;;;;20279180;29;20104;-84
2023/10/14 00:42:22;;;;;;;5.05;1.55;;;13.50;99.90;;;;;;20274863;29;20036;-85
2023/10/14 00:52:23;;;;;;;8.93;1.40;;;13.50;99.90;;;;;;20264589;29;20052;-86
2023/10/14 01:02:31;;;;;;;5.87;1.57;;;13.50;99.90;;;;;;20275955;29;20056;-85
2023/10/14 01:12:44;;;;;;;10.27;1.63;;;13.50;99.90;;;;;;20295800;29;20495;-85
2023/10/14 01:22:51;;;;;;;11.55;1.33;;;13.40;99.90;;;;;;20291217;29;20049;-83
2023/10/14 01:33:07;;;;;;;12.87;1.50;;;13.10;98.80;;;;;;20268050;29;20132;-83
2023/10/14 01:43:08;;;;;;;8.38;1.27;;;12.80;99.90;;;;;;20277632;29;20055;-83
2023/10/14 01:53:10;;;;;;;8.75;0.98;;;12.60;82.30;;;;;;20290498;29;20044;-83
2023/10/14 02:03:11;;;;;;;11.75;1.75;;;12.30;53.80;;;;;;20271701;29;20493;-83
2023/10/14 02:13:11;;;;;;;8.65;2.17;;;12.20;66.20;;;;;;20265295;29;20114;-83
2023/10/14 02:23:12;;;;;;;12.60;2.00;;;12.10;36.80;;;;;;20270356;29;20080;-82
2023/10/14 02:33:13;;;;;;;9.75;1.95;;;11.90;48.40;;;;;;20256944;29;20496;-83
2023/10/14 02:43:16;;;;;;;9.70;1.92;;;11.80;54.80;;;;;;20272347;29;20091;-83
2023/10/14 02:53:22;;;;;;;12.15;2.08;;;11.90;11.60;;;;;;20263697;29;20064;-83
2023/10/14 03:03:23;;;;;;;9.52;1.33;;;11.80;37.60;;;;;;20265233;29;20040;-83
2023/10/14 03:13:23;;;;;;;7.65;1.08;;;11.70;40.50;;;;;;20260792;29;20076;-83
2023/10/14 03:23:26;;;;;;;7.25;1.30;;;11.60;40.30;;;;;;20254824;29;20060;-83
2023/10/14 03:33:29;;;;;;;10.02;1.35;;;11.60;18.70;;;;;;20272926;29;20108;-83
2023/10/14 03:43:44;;;;;;;11.80;1.58;;;11.50;28.10;;;;;;20263293;29;20039;-85
2023/10/14 03:53:44;;;;;;;7.75;1.23;;;11.40;64.40;;;;;;20308944;29;20055;-86
2023/10/14 04:03:51;;;;;;;9.82;1.10;;;11.30;41.30;;;;;;20327423;29;20060;-83
2023/10/14 04:14:00;;;;;;;5.93;0.83;;;11.20;86.40;;;;;;20389685;29;20052;-84
2023/10/14 04:24:12;;;;;;;11.80;2.45;;;11.20;51.50;;;;;;20386631;29;20052;-84
2023/10/14 04:34:15;;;;;;;7.47;1.15;;;11.00;84.90;;;;;;20366444;29;20044;-84
2023/10/14 04:44:17;;;;;;;7.15;1.10;;;11.20;11.30;;;;;;20376637;29;20126;-84
2023/10/14 04:54:22;;;;;;;10.27;2.33;;;11.10;3.90;;;;;;20323738;29;20068;-83
2023/10/14 05:04:22;;;;;;;8.18;1.30;;;11.10;16.40;;;;;;20290816;29;20055;-83
2023/10/14 05:14:38;;;;;;;10.15;1.20;;;11.00;54.40;;;;;;20286606;29;20044;-83
2023/10/14 05:24:45;;;;;;;8.63;1.58;;;10.90;48.70;;;;;;20300519;29;20084;-83
2023/10/14 05:34:46;;;;;;;11.23;1.43;;;10.90;49.80;;;;;;20277570;29;20052;-83
2023/10/14 05:44:47;;;;;;;7.93;1.25;;;10.60;60.00;;;;;;20277302;29;20488;-83
2023/10/14 05:54:49;;;;;;;10.93;1.45;;;10.50;86.20;;;;;;20264816;29;20062;-84
2023/10/14 06:04:50;;;;;;;9.55;1.30;;;10.40;75.80;;;;;;20283666;29;20044;-86
2023/10/14 06:14:51;;;;;;;9.75;1.83;;;10.40;97.50;;;;;;20281662;29;20109;-86
2023/10/14 06:24:53;;;;;;;11.27;2.10;;;10.30;99.50;;;;;;20274181;29;21544;-86
2023/10/14 06:35:02;;;;;;;8.40;1.35;;;10.40;73.60;;;;;;20268729;29;20052;-85
2023/10/14 06:45:05;;;;;;;9.13;1.65;;;10.30;97.50;;;;;;20287616;29;20068;-85
2023/10/14 06:55:07;;;;;;;9.25;1.50;;;10.40;92.50;;;;;;20266374;29;20055;-86
2023/10/14 07:05:10;;;;;;;10.25;1.50;;;10.40;96.50;;;;;;20268738;29;20067;-86
2023/10/14 07:15:13;;;;;;;11.57;1.40;;;10.50;99.90;;;;;;20269852;29;20064;-84
2023/10/14 07:25:14;;;;;;;12.98;1.90;;;10.80;30.00;;;;;;20272795;29;20428;-84
2023/10/14 07:35:16;;;;;;;10.80;1.38;;;11.00;14.60;;;;;;20277270;29;20782;-83
2023/10/14 07:45:17;;;;;;;15.05;2.22;;;11.20;1.00;;;;;;20261734;29;20421;-82
2023/10/14 07:55:26;;;;;;;9.98;1.30;;;11.40;4.10;;;;;;20281196;29;20056;-82
2023/10/14 08:05:28;;;;;;;11.82;1.80;;;11.60;1.00;;;;;;20275410;29;20056;-82
2023/10/14 08:15:29;;;;;;;17.73;2.17;;;11.90;1.00;;;;;;20276254;29;20143;-83
2023/10/14 08:25:30;;;;;;;12.32;1.83;;;12.20;1.00;;;;;;20290571;29;20047;-86
2023/10/14 08:35:31;;;;;;;14.60;1.58;;;12.60;1.00;;;;;;20300372;29;20139;-86
2023/10/14 08:45:38;;;;;;;6.50;1.48;;;12.70;1.00;;;;;;20310225;29;20076;-86
2023/10/14 08:55:39;;;;;;;;;;;12.90;1.00;;;;;;20283717;29;20052;-86
2023/10/14 09:05:41;;;;;;;7.15;1.60;;;13.10;1.00;;;;;;20297687;29;19926;-87
2023/10/14 09:15:43;;;;;;;15.77;2.83;;;12.90;1.00;;;;;;20289758;29;20546;-88
2023/10/14 09:25:52;;;;;;;9.90;1.80;;;12.70;1.00;;;;;;20292709;29;20059;-87
2023/10/14 09:35:58;;;;;;;9.93;1.50;;;12.60;1.00;;;;;;20274261;29;20094;-87
2023/10/14 09:46:03;;;;;;;11.52;1.60;;;12.50;1.00;;;;;;20281019;28;20051;-84
2023/10/14 09:56:09;;;;;;;10.25;1.83;;;12.80;1.00;;;;;;20272293;29;20040;-84
2023/10/14 10:06:35;;;;;;;11.30;1.73;;;12.90;1.00;;;;;;20269151;29;20044;-84
2023/10/14 10:16:37;;;;;;;12.38;1.80;;;13.70;1.00;;;;;;20274669;29;20055;-84
2023/10/14 10:27:16;;;;;;;12.77;1.92;;;13.10;1.00;;;;;;20289220;29;20055;-85
2023/10/14 10:37:17;;;;;;;13.32;1.95;;;12.60;1.00;;;;;;20266367;29;20041;-85
2023/10/14 10:47:18;;;;;;;6.93;1.10;;;12.60;1.00;;;;;;20280172;29;20128;-84
2023/10/14 10:57:19;;;;;;;8.85;1.48;;;12.60;1.00;;;;;;20278963;29;20167;-85
2023/10/14 11:07:23;;;;;;;9.32;2.10;;;13.30;1.00;;;;;;20276775;29;20063;-84
2023/10/14 11:17:26;;;;;;;10.02;1.83;;;14.20;1.00;;;;;;20278066;29;20402;-87
2023/10/14 11:27:30;;;;;;;12.35;1.65;;;14.00;1.00;;;;;;20276047;29;20100;-85
2023/10/14 11:37:36;;;;;;;8.55;1.67;;;14.00;1.00;;;;;;20274553;29;20060;-86
2023/10/14 11:47:40;;;;;;;6.93;1.27;;;15.00;1.00;;;;;;20273197;29;20687;-88
2023/10/14 11:57:44;;;;;;;7.85;1.17;;;15.40;1.00;;;;;;20266235;29;20066;-84
2023/10/14 12:07:49;;;;;;;6.38;1.38;;;15.80;1.00;;;;;;20235795;29;20046;-85
2023/10/14 12:17:49;;;;;;;8.73;1.27;;;15.30;1.00;;;;;;20260044;29;20411;-86
2023/10/14 12:27:50;;;;;;;9.23;1.35;;;15.20;1.00;;;;;;20256256;29;20090;-91
2023/10/14 12:37:51;;;;;;;5.28;1.17;;;14.70;1.00;;;;;;20269128;29;20094;-84
2023/10/14 12:48:09;;;;;;;9.13;1.50;;;14.60;1.00;;;;;;20264667;29;20048;-85
2023/10/14 12:58:12;;;;;;;8.00;1.30;;;14.10;1.00;;;;;;20260630;29;20040;-85
2023/10/14 13:08:18;;;;;;;11.93;2.05;;;15.20;1.00;;;;;;20280124;28;20046;-84
2023/10/14 13:18:24;;;;;;;6.30;1.07;;;16.20;1.00;;;;;;20285284;29;20044;-85
2023/10/14 13:28:24;;;;;;;11.55;1.63;;;15.90;1.00;;;;;;20277067;29;20044;-85
2023/10/14 13:38:25;;;;;;;9.07;1.40;;;14.60;1.00;;;;;;20280713;29;20070;-85
2023/10/14 13:48:26;;;;;;;9.07;1.75;;;14.90;1.00;;;;;;20292364;29;20100;-85
2023/10/14 13:58:26;;;;;;;13.30;1.58;;;15.40;1.00;;;;;;20269483;29;20041;-86
2023/10/14 14:08:27;;;;;;;6.38;1.10;;;14.90;1.00;;;;;;20275737;29;20036;-87
2023/10/14 14:18:28;;;;;;;12.00;1.50;;;13.90;1.00;;;;;;20273290;29;20049;-86
2023/10/14 14:28:29;;;;;;;7.20;1.50;;;13.30;1.00;;;;;;20269042;29;20072;-83
2023/10/14 14:38:29;;;;;;;10.65;2.17;;;13.70;1.00;;;;;;20274775;29;20047;-86
2023/10/14 14:48:30;;;;;;;10.17;2.50;;;13.90;1.00;;;;;;20284279;29;20036;-86
2023/10/14 14:58:30;;;;;;;9.65;1.92;;;13.80;1.00;;;;;;20258912;29;20126;-88
2023/10/14 15:08:31;;;;;;;7.72;1.83;;;13.60;1.00;;;;;;20281395;29;20051;-84
2023/10/14 15:18:32;;;;;;;7.60;2.20;;;13.50;1.00;;;;;;20281349;28;20055;-86
2023/10/14 15:28:32;;;;;;;7.60;1.65;;;13.60;1.00;;;;;;20295942;29;20560;-87
2023/10/14 15:38:33;;;;;;;9.02;1.27;;;13.30;1.00;;;;;;20371987;29;20035;-85
2023/10/14 15:48:34;;;;;;;5.38;0.90;;;13.00;1.00;;;;;;20357066;29;20092;-84
2023/10/14 15:58:34;;;;;;;7.85;1.30;;;12.80;1.00;;;;;;20372460;29;20043;-85
2023/10/14 16:08:36;;;;;;;7.82;1.42;;;12.50;1.00;;;;;;20340617;29;20044;-83
2023/10/14 16:18:36;;;;;;;9.65;1.00;;;12.30;1.00;;;;;;20274367;29;20397;-84
2023/10/14 16:28:38;;;;;;;7.35;1.52;;;12.10;1.00;;;;;;20257677;29;20071;-82
2023/10/14 16:38:43;;;;;;;9.45;1.90;;;11.90;1.00;;;;;;20288015;29;20052;-89
2023/10/14 16:48:45;;;;;;;5.93;1.25;;;11.90;1.00;;;;;;20288935;29;20036;-83
2023/10/14 16:58:46;;;;;;;10.27;1.73;;;11.90;1.00;;;;;;20282715;29;20044;-87
2023/10/14 17:08:46;;;;;;;8.30;1.20;;;11.60;1.00;;;;;;20269430;29;20048;-85
2023/10/14 17:18:47;;;;;;;8.13;1.45;;;11.30;1.00;;;;;;20265088;29;20580;-84
2023/10/14 17:28:47;;;;;;;7.60;1.70;;;10.90;1.00;;;;;;20263366;29;20059;-90
2023/10/14 17:38:49;;;;;;;7.95;1.23;;;10.80;1.00;;;;;;20275258;29;20166;-86
2023/10/14 17:48:51;;;;;;;6.80;1.40;;;10.80;1.00;;;;;;20277231;29;20047;-87
2023/10/14 17:58:52;;;;;;;10.35;2.20;;;10.70;1.00;;;;;;20274289;29;20103;-85
2023/10/14 18:08:53;;;;;;;15.63;4.28;;;10.50;1.00;;;;;;20267391;29;20052;-86
2023/10/14 18:18:54;;;;;;;11.93;4.78;;;10.30;1.00;;;;;;20268775;29;20041;-85
2023/10/14 18:28:54;;;;;;;9.90;2.55;;;10.20;1.00;;;;;;20266958;29;20572;-89
2023/10/14 18:38:55;;;;;;;8.75;1.73;;;10.10;1.00;;;;;;20291095;28;20104;-89
2023/10/14 18:48:57;;;;;;;6.90;1.40;;;9.90;1.00;;;;;;20268824;29;20044;-87
2023/10/14 18:58:57;;;;;;;14.65;3.88;;;9.70;1.00;;;;;;20278047;29;20051;-90
2023/10/14 19:08:58;;;;;;;8.82;2.45;;;9.60;1.00;;;;;;20250817;29;20036;-85
2023/10/14 19:18:58;;;;;;;11.13;1.83;;;9.40;1.00;;;;;;20263554;29;20044;-86
2023/10/14 19:28:59;;;;;;;6.68;1.48;;;9.20;1.00;;;;;;20259840;29;20614;-89
2023/10/14 19:38:59;;;;;;;10.40;2.05;;;9.00;1.00;;;;;;20259964;29;20072;-89
2023/10/14 19:49:00;;;;;;;8.35;2.03;;;8.90;1.00;;;;;;20256525;29;20059;-87
2023/10/14 19:59:01;;;;;;;9.02;1.63;;;8.80;1.00;;;;;;20272011;29;20059;-86
2023/10/14 20:09:02;;;;;;;8.48;1.48;;;8.70;1.00;;;;;;20269155;29;20044;-86
2023/10/14 20:19:13;;;;;;;8.63;1.55;;;8.70;1.00;;;;;;20236885;29;20047;-92
2023/10/14 20:29:14;;;;;;;8.85;1.60;;;8.60;1.00;;;;;;20218971;29;20053;-86
2023/10/14 20:39:28;;;;;;;8.70;1.63;;;8.50;1.00;;;;;;20268910;29;20100;-87
2023/10/14 20:49:31;;;;;;;8.18;1.50;;;8.40;1.00;;;;;;20250684;29;20464;-88
2023/10/14 20:59:31;;;;;;;9.80;2.30;;;8.60;1.00;;;;;;20251456;29;20051;-87
2023/10/14 21:09:32;;;;;;;7.18;2.10;;;8.50;1.00;;;;;;20254165;29;20505;-87
2023/10/14 21:19:33;;;;;;;11.00;1.83;;;8.50;1.00;;;;;;20236750;29;20044;-87
2023/10/14 21:29:37;;;;;;;7.85;2.17;;;8.70;1.00;;;;;;20250995;29;20044;-86
2023/10/14 21:39:38;;;;;;;7.13;1.70;;;8.90;1.00;;;;;;20282388;29;20058;-86
2023/10/14 21:49:39;;;;;;;5.03;1.13;;;9.00;1.00;;;;;;20275899;29;20048;-86
2023/10/14 21:59:40;;;;;;;4.93;1.42;;;9.00;1.00;;;;;;20276809;29;21266;-85
2023/10/14 22:09:40;;;;;;;5.68;1.30;;;8.90;1.00;;;;;;20276329;29;20044;-86
2023/10/14 22:19:42;;;;;;;7.32;1.67;;;8.50;21.30;;;;;;20276192;29;20498;-86
2023/10/14 22:29:43;;;;;;;3.67;1.08;;;8.50;89.70;;;;;;20273893;29;20051;-83
2023/10/14 22:40:24;;;;;;;2.53;0.50;;;8.40;99.90;;;;;;20275468;29;20080;-84
2023/10/14 22:50:25;;;;;;;4.55;0.70;;;8.40;90.30;;;;;;20292821;29;20055;-85
2023/10/14 23:00:26;;;;;;;4.47;0.68;;;8.30;99.90;;;;;;20268929;29;20047;-88
2023/10/14 23:10:29;;;;;;;6.55;2.40;;;8.30;99.90;;;;;;20268230;29;20056;-89
2023/10/14 23:20:30;;;;;;;5.85;0.75;;;8.40;99.90;;;;;;20265113;29;20523;-89
2023/10/14 23:30:30;;;;;;;1.13;0.52;;;8.50;99.90;;;;;;20264288;29;20049;-88
2023/10/14 23:40:31;;;;;;;3.72;0.70;;;8.40;99.90;;;;;;20261445;29;20040;-86
2023/10/14 23:50:35;;;;;;;3.45;0.70;;;8.30;99.90;;;;;;20258804;29;20202;-85
